Beaumont, KY (42124)

6:53 AM CST on February 27, 2015 (GMT -0600)
Center Point Ky | Change Station
CLOSE
Current Station
Personal Weather Station
Location: Tompkinsville, KY
Elevation: 740 ft
Nearby Weather Stations

Elev 740 ft 36.72 °N, 85.51 °W | Updated 12 minutes ago

Mostly Cloudy
Mostly Cloudy
14.4 °F
Feels Like 14 °F
N
0.0
Wind Variable Wind from NNW

Today
High -- | Low -- °F
--% Chance of Precip.
Yesterday
High -- | Low -- °F
Precip. -- in
6:16 AM 5:34 PM
Waxing Gibbous, 68% visible
Pressure 30.51 in
Visibility 10.0 miles
Clouds Overcast 3800 ft
Windchill 14 °F
Dew Point 10 °F
Humidity 81%
Rainfall 0.00 in
Snow Depth Not available.
UV 0 out of 12
Pollen .90 out of 12
Air Quality Not available.
Flu Activity Not available.
METAR KGLW 271235Z AUTO 05003KT 10SM OVC038 M10/M13 A3051 RMK AO2 T10961127

More Conditions Fewer Conditions

Pressure 30.51 in
Visibility 10.0 miles
Clouds Overcast 3800 ft
Windchill 14 °F
Dew Point 10 °F
Humidity 81%
Rainfall 0.00 in
Snow Depth Not available.
UV 0 out of 12
Pollen .90 out of 12
Air Quality Not available.
Flu Activity Not available.
METAR KGLW 271235Z AUTO 05003KT 10SM OVC038 M10/M13 A3051 RMK AO2 T10961127

More Conditions Fewer Conditions

10-Day Weather Forecast

Almanac

Astronomy

Feb. 27, 2015 Rise Set
Actual Time
Civil Twilight
Nautical Twilight
Astronomical Twilight
Moon
Length of Visible Light
Length of Day
Tomorrow will be .
, % of the Moon is Illuminated

Today's Extremes

State Highs State Lows

Community

WunderPhotos

Upload Photos

1,800,667 photos uploaded!

WunderBlogs® & News

Nearby

Air Quality

  Air Quality AQ Index Pollutant
Not available.

Snow Depth

Station Depth Elevation

Earthquake Activity

City Distance Mag. Time & Date
Minimum magnitude displayed is 2.5.

Coastal Water Temperatures

Place Temperature

Nearby Weather Stations